• Join FlightAware (Why Join?)
  • Login
  • US Flag 
07:00AM EST


 

Airport Tracker/Info


-or-


 

Live Flight TrackerFlight Track Log ✈ SWA3408 ✈ 14-Dec-2013 ✈ KMDW - KMEM

Flight Track Log - Related Links

Times and Time Zones

All times are in EST time to prevent confusion due to time zone crossing. See the SWA3408 flight status page for this flight to view local times or setup timezone preferences in your user account.

Time Position Orientation Groundspeed Altitude Reporting Facility
EST Latitude Longitude Course Direction KTS MPH feet Rate Location/Type
10:57AM 41.8000 -87.7167 180° South 168 193 2,100  Level Chicago TRACON
10:58AM 41.7783 -87.6906 138° Southeast 194 223 3,300 2,880 Climbing Chicago Center
10:59AM 41.7242 -87.6839 175° South 239 275 6,600 3,420 Climbing Chicago Center
11:00AM 41.6622 -87.7233 205° Southwest 246 283 10,300 3,060 Climbing Chicago Center
11:01AM 41.5953 -87.7653 205° Southwest 260 299 12,900 2,520 Climbing Chicago Center
11:02AM 41.5206 -87.8114 205° Southwest 286 329 15,500 3,000 Climbing Chicago Center
11:03AM 41.0253 -88.0261 180° South  Level Estimated
11:03AM 41.4403 -87.8614 205° Southwest 311 358 19,100  Level Chicago Center
11:04AM 41.3556 -87.8839 191° South 315 362 21,600 2,340 Climbing Chicago Center
11:05AM 41.2647 -87.8917 184° South 322 371 23,900 2,280 Climbing Chicago Center
11:06AM 41.1628 -87.8900 179° South 338 389 26,300 2,160 Climbing Chicago Center
11:07AM 41.0758 -87.8875 179° South 339 390 28,400 2,100 Climbing Chicago Center
11:08AM 40.9833 -87.8861 179° South 334 384 30,600 1,440 Climbing Chicago Center
11:09AM 40.8694 -87.8886 181° South 340 391 31,400 780 Climbing Chicago Center
11:10AM 40.7639 -87.8900 181° South 367 422 32,200 1,200 Climbing Chicago Center
11:11AM 40.6567 -87.8917 181° South 382 440 33,900 1,140 Climbing Chicago Center
11:12AM 40.5478 -87.8961 182° South 388 447 34,600 780 Climbing Chicago Center
11:13AM 40.4336 -87.8972 180° South 402 463 35,500 660 Climbing Chicago Center
11:14AM 40.3189 -87.8997 181° South 412 474 36,000 240 Climbing Chicago Center
11:15AM 40.2067 -87.9031 181° South 407 468 36,000  Level Chicago Center
11:16AM 40.0925 -87.9072 182° South 407 468 36,000  Level Chicago Center
11:17AM 39.9728 -87.9100 181° South 419 482 36,000  Level Chicago Center
11:18AM 39.8567 -87.9128 181° South 420 483 36,000  Level Indianapolis Center
11:19AM 39.7406 -87.9153 181° South 420 483 36,000  Level Indianapolis Center
11:20AM 39.6253 -87.9169 181° South 418 481 36,000  Level Indianapolis Center
11:21AM 39.4883 -87.9192 181° South 414 476 36,000  Level Indianapolis Center
11:22AM 39.3733 -87.9228 181° South 416 479 36,000  Level Indianapolis Center
11:23AM 39.2600 -87.9250 181° South 413 475 36,000  Level Indianapolis Center
11:24AM 39.1450 -87.9272 181° South 412 474 36,000  Level Indianapolis Center
11:25AM 39.0317 -87.9283 180° South 410 472 36,000  Level Indianapolis Center
11:26AM 38.9167 -87.9319 181° South 410 472 36,000  Level Indianapolis Center
11:27AM 38.8039 -87.9333 181° South 406 467 36,000  Level Indianapolis Center
11:28AM 38.6889 -87.9367 181° South 411 473 36,000  Level Indianapolis Center
11:30AM 38.5756 -87.9386 181° South 408 470 36,000  Level Indianapolis Center
11:31AM 38.4411 -87.9419 181° South 404 465 36,000 -60 Level Indianapolis Center
11:32AM 38.3322 -87.9436 181° South 394 453 35,900 -600 Descending Indianapolis Center
11:33AM 38.2233 -87.9464 181° South 392 451 34,800 -960 Descending Indianapolis Center
11:34AM 38.1131 -87.9486 181° South 395 455 34,000 -420 Descending Indianapolis Center
11:35AM 38.0003 -87.9503 181° South 403 464 34,000  Level Indianapolis Center
11:36AM 37.8850 -87.9528 181° South 412 474 34,000  Level Indianapolis Center
11:37AM 37.7731 -87.9550 181° South 403 464 34,000  Level Indianapolis Center
11:38AM 37.6647 -87.9575 181° South 392 451 34,000  Level Indianapolis Center
11:39AM 37.5619 -87.9861 192° South 377 434 34,000  Level Indianapolis Center
11:40AM 37.4667 -88.0444 206° Southwest 375 432 34,000  Level Indianapolis Center
11:41AM 37.3561 -88.1125 206° Southwest 377 434 34,000  Level Indianapolis Center
11:42AM 37.2656 -88.1656 205° Southwest 367 422 34,000  Level Indianapolis Center
11:42AM 37.2281 -88.1869 204° Southwest 361 415 34,000  Level Memphis Center
11:43AM 37.1386 -88.2411 206° Southwest 358 412 34,000  Level Memphis Center
11:44AM 37.0489 -88.2947 205° Southwest 357 411 34,000  Level Memphis Center
11:45AM 36.9603 -88.3481 206° Southwest 353 406 34,000  Level Memphis Center
11:46AM 36.8714 -88.4014 206° Southwest 353 406 34,000  Level Memphis Center
11:47AM 36.7808 -88.4550 205° Southwest 358 412 34,000  Level Memphis Center
11:48AM 36.6928 -88.5075 206° Southwest 353 406 34,000  Level Memphis Center
11:49AM 36.5869 -88.5711 206° Southwest 349 402 34,000  Level Memphis Center
11:50AM 36.4939 -88.6258 205° Southwest 360 414 34,000  Level Memphis Center
11:51AM 36.3983 -88.6808 205° Southwest 371 427 34,000  Level Memphis Center
11:52AM 36.3053 -88.7358 205° Southwest 371 427 34,000  Level Memphis Center
11:54AM 36.2150 -88.7886 205° Southwest 362 417 34,000 -60 Level Memphis Center
11:55AM 36.1281 -88.8389 205° Southwest 349 402 33,900 -1,320 Descending Memphis Center
11:56AM 36.0406 -88.8892 205° Southwest 345 397 31,400 -2,400 Descending Memphis Center
11:57AM 35.9567 -88.9381 205° Southwest 335 386 29,100 -2,220 Descending Memphis Center
11:58AM 35.8769 -88.9833 205° Southwest 320 368 26,900 -2,460 Descending Memphis Center
11:59AM 35.7689 -89.0475 206° Southwest 353 406 23,900 -1,860 Descending Memphis Center
12:00PM 35.6906 -89.1200 217° Southwest 351 404 23,000 -1,620 Descending Memphis Center
12:01PM 35.6297 -89.2000 227° Southwest 346 398 20,600 -2,400 Descending Memphis Center
12:02PM 35.5650 -89.2833 226° Southwest 339 390 18,100 -2,280 Descending Memphis Center
12:03PM 35.5022 -89.3631 226° Southwest 327 376 16,000 -1,080 Descending Memphis Center
12:04PM 35.4306 -89.4567 227° Southwest 320 368 16,000 -300 Level Memphis Center
12:05PM 35.3656 -89.5381 226° Southwest 328 377 15,400 -900 Descending Memphis Center
12:06PM 35.3017 -89.6194 226° Southwest 331 381 14,200 -1,620 Descending Memphis Center
12:07PM 35.2419 -89.6964 226° Southwest 314 361 12,100 -1,620 Descending Memphis Center
12:08PM 35.1792 -89.7756 226° Southwest 320 368 10,900 -1,140 Descending Memphis Center
12:09PM 35.1256 -89.8422 225° Southwest 285 328 9,800 -1,320 Descending Memphis Center
12:10PM 35.0633 -89.8656 197° South 263 303 8,300 -1,440 Descending Memphis Center
12:11PM 34.9986 -89.8647 179° South 238 274 6,900 -1,260 Descending Memphis Center
12:12PM 34.9367 -89.8642 180° South 227 261 5,800 -1,140 Descending Memphis Center
12:13PM 34.8667 -89.8628 179° South 218 251 4,600 -960 Descending Memphis Center
12:14PM 34.8317 -89.9025 223° Southwest 205 236 3,900 -480 Descending Memphis Center
12:15PM 34.8342 -89.9569 273° West 174 200 3,700 -480 Descending Memphis Center
12:16PM 34.8792 -89.9850 333° Northwest 181 208 3,000 -840 Descending Memphis Center
12:17PM 34.9272 -89.9856 359° North 173 199 2,000 -720 Descending Memphis Center
12:18PM 34.9667 -89.9833 North 120 138 1,400 -600 Descending KMEM
12:19PM 35.0167 -89.9833 360° North 125 144 700 -720 Descending KMEM
12:22PM 35.0333 -89.9667 345° North  Level FlightAware Approximate